sensor_id;sensor_type;location;lat;lon;timestamp;temperature;humidity
18153;DHT22;9202;51.578;7.734;2023-08-20T00:01:24;19.50;99.90
18153;DHT22;9202;51.578;7.734;2023-08-20T00:03:28;19.60;99.90
18153;DHT22;9202;51.578;7.734;2023-08-20T00:05:32;19.60;99.90
18153;DHT22;9202;51.578;7.734;2023-08-20T00:07:35;19.60;99.90
18153;DHT22;9202;51.578;7.734;2023-08-20T00:09:39;19.60;99.90
18153;DHT22;9202;51.578;7.734;2023-08-20T00:11:42;19.50;99.90
18153;DHT22;9202;51.578;7.734;2023-08-20T00:13:45;19.60;99.90
18153;DHT22;9202;51.578;7.734;2023-08-20T00:15:48;19.60;99.90
18153;DHT22;9202;51.578;7.734;2023-08-20T00:17:51;19.70;99.90
18153;DHT22;9202;51.578;7.734;2023-08-20T00:19:55;19.70;99.90
18153;DHT22;9202;51.578;7.734;2023-08-20T00:21:58;19.80;99.90
18153;DHT22;9202;51.578;7.734;2023-08-20T00:24:01;19.80;99.90
18153;DHT22;9202;51.578;7.734;2023-08-20T00:26:05;19.80;99.90
18153;DHT22;9202;51.578;7.734;2023-08-20T00:28:08;19.70;99.90
18153;DHT22;9202;51.578;7.734;2023-08-20T00:30:11;19.70;99.90
18153;DHT22;9202;51.578;7.734;2023-08-20T00:32:15;19.60;99.90
18153;DHT22;9202;51.578;7.734;2023-08-20T00:34:18;19.60;99.90
18153;DHT22;9202;51.578;7.734;2023-08-20T00:36:21;19.60;99.90
18153;DHT22;9202;51.578;7.734;2023-08-20T00:38:23;19.50;99.90
18153;DHT22;9202;51.578;7.734;2023-08-20T00:40:27;19.50;99.90
18153;DHT22;9202;51.578;7.734;2023-08-20T00:42:30;19.40;99.90
18153;DHT22;9202;51.578;7.734;2023-08-20T00:44:33;19.40;99.90
18153;DHT22;9202;51.578;7.734;2023-08-20T00:46:36;19.30;99.90
18153;DHT22;9202;51.578;7.734;2023-08-20T00:48:39;19.30;99.90
18153;DHT22;9202;51.578;7.734;2023-08-20T00:50:41;19.30;99.90
18153;DHT22;9202;51.578;7.734;2023-08-20T00:52:44;19.40;99.90
18153;DHT22;9202;51.578;7.734;2023-08-20T00:54:49;19.30;99.90
18153;DHT22;9202;51.578;7.734;2023-08-20T00:56:52;19.40;99.90
18153;DHT22;9202;51.578;7.734;2023-08-20T00:58:54;19.30;99.90
18153;DHT22;9202;51.578;7.734;2023-08-20T01:00:57;19.30;99.90
18153;DHT22;9202;51.578;7.734;2023-08-20T01:03:00;19.20;99.90
18153;DHT22;9202;51.578;7.734;2023-08-20T01:05:05;19.20;99.90
18153;DHT22;9202;51.578;7.734;2023-08-20T01:07:10;19.10;99.90
18153;DHT22;9202;51.578;7.734;2023-08-20T01:09:17;19.20;99.90
18153;DHT22;9202;51.578;7.734;2023-08-20T01:11:21;19.20;99.90
18153;DHT22;9202;51.578;7.734;2023-08-20T01:13:26;19.20;99.90
18153;DHT22;9202;51.578;7.734;2023-08-20T01:15:29;19.00;99.90
18153;DHT22;9202;51.578;7.734;2023-08-20T01:17:32;18.90;99.90
18153;DHT22;9202;51.578;7.734;2023-08-20T01:19:36;18.80;99.90
18153;DHT22;9202;51.578;7.734;2023-08-20T01:21:47;18.90;99.90
18153;DHT22;9202;51.578;7.734;2023-08-20T01:23:51;18.80;99.90
18153;DHT22;9202;51.578;7.734;2023-08-20T01:25:58;18.70;99.90
18153;DHT22;9202;51.578;7.734;2023-08-20T01:28:05;18.70;99.90
18153;DHT22;9202;51.578;7.734;2023-08-20T01:30:08;18.80;99.90
18153;DHT22;9202;51.578;7.734;2023-08-20T01:32:11;18.80;99.90
18153;DHT22;9202;51.578;7.734;2023-08-20T01:34:15;18.80;99.90
18153;DHT22;9202;51.578;7.734;2023-08-20T01:36:20;18.80;99.90
18153;DHT22;9202;51.578;7.734;2023-08-20T01:38:22;18.80;99.90
18153;DHT22;9202;51.578;7.734;2023-08-20T01:40:25;18.90;99.90
18153;DHT22;9202;51.578;7.734;2023-08-20T01:42:28;18.90;99.90
18153;DHT22;9202;51.578;7.734;2023-08-20T01:44:31;19.00;99.90
18153;DHT22;9202;51.578;7.734;2023-08-20T01:46:34;19.00;99.90
18153;DHT22;9202;51.578;7.734;2023-08-20T01:48:37;19.10;99.90
18153;DHT22;9202;51.578;7.734;2023-08-20T01:50:40;19.20;99.90
18153;DHT22;9202;51.578;7.734;2023-08-20T01:52:43;19.20;99.90
18153;DHT22;9202;51.578;7.734;2023-08-20T01:54:47;19.20;99.90
18153;DHT22;9202;51.578;7.734;2023-08-20T01:56:50;19.20;99.90
18153;DHT22;9202;51.578;7.734;2023-08-20T01:58:53;19.20;99.90
18153;DHT22;9202;51.578;7.734;2023-08-20T02:00:56;19.20;99.90
18153;DHT22;9202;51.578;7.734;2023-08-20T02:02:59;19.30;99.90
18153;DHT22;9202;51.578;7.734;2023-08-20T02:05:02;19.20;99.90
18153;DHT22;9202;51.578;7.734;2023-08-20T02:07:05;19.20;99.90
18153;DHT22;9202;51.578;7.734;2023-08-20T02:09:08;19.20;99.90
18153;DHT22;9202;51.578;7.734;2023-08-20T02:11:11;19.10;99.90
18153;DHT22;9202;51.578;7.734;2023-08-20T02:13:14;19.10;99.90
18153;DHT22;9202;51.578;7.734;2023-08-20T02:15:17;19.10;99.90
18153;DHT22;9202;51.578;7.734;2023-08-20T02:17:20;19.10;99.90
18153;DHT22;9202;51.578;7.734;2023-08-20T02:19:23;19.20;99.90
18153;DHT22;9202;51.578;7.734;2023-08-20T02:21:27;19.20;99.90
18153;DHT22;9202;51.578;7.734;2023-08-20T02:23:30;19.20;99.90
18153;DHT22;9202;51.578;7.734;2023-08-20T02:25:34;19.30;99.90
18153;DHT22;9202;51.578;7.734;2023-08-20T02:27:36;19.20;99.90
18153;DHT22;9202;51.578;7.734;2023-08-20T02:29:40;19.20;99.90
18153;DHT22;9202;51.578;7.734;2023-08-20T02:31:43;19.20;99.90
18153;DHT22;9202;51.578;7.734;2023-08-20T02:33:45;19.20;99.90
18153;DHT22;9202;51.578;7.734;2023-08-20T02:35:49;19.20;99.90
18153;DHT22;9202;51.578;7.734;2023-08-20T02:37:52;19.10;99.90
18153;DHT22;9202;51.578;7.734;2023-08-20T02:39:55;19.20;99.90
18153;DHT22;9202;51.578;7.734;2023-08-20T02:41:58;19.20;99.90
18153;DHT22;9202;51.578;7.734;2023-08-20T02:44:02;19.10;99.90
18153;DHT22;9202;51.578;7.734;2023-08-20T02:46:05;19.20;99.90
18153;DHT22;9202;51.578;7.734;2023-08-20T02:48:09;19.20;99.90
18153;DHT22;9202;51.578;7.734;2023-08-20T02:50:13;19.20;99.90
18153;DHT22;9202;51.578;7.734;2023-08-20T02:52:15;19.20;99.90
18153;DHT22;9202;51.578;7.734;2023-08-20T02:54:18;19.10;99.90
18153;DHT22;9202;51.578;7.734;2023-08-20T02:56:21;19.20;99.90
18153;DHT22;9202;51.578;7.734;2023-08-20T02:58:24;19.20;99.90
18153;DHT22;9202;51.578;7.734;2023-08-20T03:00:27;19.30;99.90
18153;DHT22;9202;51.578;7.734;2023-08-20T03:02:31;19.30;99.90
18153;DHT22;9202;51.578;7.734;2023-08-20T03:04:34;19.20;99.90
18153;DHT22;9202;51.578;7.734;2023-08-20T03:06:37;19.30;99.90
18153;DHT22;9202;51.578;7.734;2023-08-20T03:08:40;19.40;99.90
18153;DHT22;9202;51.578;7.734;2023-08-20T03:10:43;19.40;99.90
18153;DHT22;9202;51.578;7.734;2023-08-20T03:12:46;19.50;99.90
18153;DHT22;9202;51.578;7.734;2023-08-20T03:14:49;19.50;99.90
18153;DHT22;9202;51.578;7.734;2023-08-20T03:16:52;19.50;99.90
18153;DHT22;9202;51.578;7.734;2023-08-20T03:18:55;19.60;99.90
18153;DHT22;9202;51.578;7.734;2023-08-20T03:20:58;19.60;99.90
18153;DHT22;9202;51.578;7.734;2023-08-20T03:23:01;19.70;99.90
18153;DHT22;9202;51.578;7.734;2023-08-20T03:25:04;19.70;99.90
18153;DHT22;9202;51.578;7.734;2023-08-20T03:27:08;19.70;99.90
18153;DHT22;9202;51.578;7.734;2023-08-20T03:29:11;19.70;99.90
18153;DHT22;9202;51.578;7.734;2023-08-20T03:31:14;19.70;99.90
18153;DHT22;9202;51.578;7.734;2023-08-20T03:33:18;19.80;99.90
18153;DHT22;9202;51.578;7.734;2023-08-20T03:35:21;19.80;99.90
18153;DHT22;9202;51.578;7.734;2023-08-20T03:37:24;19.90;99.90
18153;DHT22;9202;51.578;7.734;2023-08-20T03:39:27;20.00;99.90
18153;DHT22;9202;51.578;7.734;2023-08-20T03:41:30;20.00;99.90
18153;DHT22;9202;51.578;7.734;2023-08-20T03:43:32;19.90;99.90
18153;DHT22;9202;51.578;7.734;2023-08-20T03:45:36;20.00;99.90
18153;DHT22;9202;51.578;7.734;2023-08-20T03:47:38;20.00;99.90
18153;DHT22;9202;51.578;7.734;2023-08-20T03:49:43;19.90;99.90
18153;DHT22;9202;51.578;7.734;2023-08-20T03:51:46;19.90;99.90
18153;DHT22;9202;51.578;7.734;2023-08-20T03:53:49;19.90;99.90
18153;DHT22;9202;51.578;7.734;2023-08-20T03:55:52;19.90;99.90
18153;DHT22;9202;51.578;7.734;2023-08-20T03:57:55;20.00;99.90
18153;DHT22;9202;51.578;7.734;2023-08-20T03:59:58;20.00;99.90
18153;DHT22;9202;51.578;7.734;2023-08-20T04:02:01;20.00;99.90
18153;DHT22;9202;51.578;7.734;2023-08-20T04:04:04;20.10;99.90
18153;DHT22;9202;51.578;7.734;2023-08-20T04:06:07;20.00;99.90
18153;DHT22;9202;51.578;7.734;2023-08-20T04:08:12;20.00;99.90
18153;DHT22;9202;51.578;7.734;2023-08-20T04:10:15;20.00;99.90
18153;DHT22;9202;51.578;7.734;2023-08-20T04:12:18;20.10;99.90
18153;DHT22;9202;51.578;7.734;2023-08-20T04:14:20;20.20;99.90
18153;DHT22;9202;51.578;7.734;2023-08-20T04:16:24;20.20;99.90
18153;DHT22;9202;51.578;7.734;2023-08-20T04:18:27;20.20;99.90
18153;DHT22;9202;51.578;7.734;2023-08-20T04:20:31;20.20;99.90
18153;DHT22;9202;51.578;7.734;2023-08-20T04:22:36;20.20;99.90
18153;DHT22;9202;51.578;7.734;2023-08-20T04:24:40;20.20;99.90
18153;DHT22;9202;51.578;7.734;2023-08-20T04:26:43;20.20;99.90
18153;DHT22;9202;51.578;7.734;2023-08-20T04:28:47;20.10;99.90
18153;DHT22;9202;51.578;7.734;2023-08-20T04:30:51;20.20;99.90
18153;DHT22;9202;51.578;7.734;2023-08-20T04:32:57;20.20;99.90
18153;DHT22;9202;51.578;7.734;2023-08-20T04:35:02;20.20;99.90
18153;DHT22;9202;51.578;7.734;2023-08-20T04:37:05;20.20;99.90
18153;DHT22;9202;51.578;7.734;2023-08-20T04:39:08;20.20;99.90
18153;DHT22;9202;51.578;7.734;2023-08-20T04:41:12;20.10;99.90
18153;DHT22;9202;51.578;7.734;2023-08-20T04:43:15;20.10;99.90
18153;DHT22;9202;51.578;7.734;2023-08-20T04:45:19;20.20;99.90
18153;DHT22;9202;51.578;7.734;2023-08-20T04:47:22;20.20;99.90
18153;DHT22;9202;51.578;7.734;2023-08-20T04:49:25;20.30;99.90
18153;DHT22;9202;51.578;7.734;2023-08-20T04:51:30;20.20;99.90
18153;DHT22;9202;51.578;7.734;2023-08-20T04:53:33;20.20;99.90
18153;DHT22;9202;51.578;7.734;2023-08-20T04:55:36;20.20;99.90
18153;DHT22;9202;51.578;7.734;2023-08-20T04:57:40;20.20;99.90
18153;DHT22;9202;51.578;7.734;2023-08-20T04:59:43;20.20;99.90
18153;DHT22;9202;51.578;7.734;2023-08-20T05:01:49;20.20;99.90
18153;DHT22;9202;51.578;7.734;2023-08-20T05:03:53;20.20;99.90
18153;DHT22;9202;51.578;7.734;2023-08-20T05:05:56;20.20;99.90
18153;DHT22;9202;51.578;7.734;2023-08-20T05:07:59;20.20;99.90
18153;DHT22;9202;51.578;7.734;2023-08-20T05:10:03;20.20;99.90
18153;DHT22;9202;51.578;7.734;2023-08-20T05:12:07;20.30;99.90
18153;DHT22;9202;51.578;7.734;2023-08-20T05:16:26;20.20;99.90
18153;DHT22;9202;51.578;7.734;2023-08-20T05:18:29;20.30;99.90
18153;DHT22;9202;51.578;7.734;2023-08-20T05:20:32;20.40;99.90
18153;DHT22;9202;51.578;7.734;2023-08-20T05:22:35;20.40;99.90
18153;DHT22;9202;51.578;7.734;2023-08-20T05:24:38;20.40;99.90
18153;DHT22;9202;51.578;7.734;2023-08-20T05:26:41;20.40;99.90
18153;DHT22;9202;51.578;7.734;2023-08-20T05:28:44;20.50;99.90
18153;DHT22;9202;51.578;7.734;2023-08-20T05:30:53;20.50;99.90
18153;DHT22;9202;51.578;7.734;2023-08-20T05:32:57;20.50;99.90
18153;DHT22;9202;51.578;7.734;2023-08-20T05:35:00;20.50;99.90
18153;DHT22;9202;51.578;7.734;2023-08-20T05:37:03;20.50;99.90
18153;DHT22;9202;51.578;7.734;2023-08-20T05:39:06;20.50;99.90
18153;DHT22;9202;51.578;7.734;2023-08-20T05:41:09;20.50;99.90
18153;DHT22;9202;51.578;7.734;2023-08-20T05:43:12;20.50;99.90
18153;DHT22;9202;51.578;7.734;2023-08-20T05:45:16;20.60;99.90
18153;DHT22;9202;51.578;7.734;2023-08-20T05:47:19;20.60;99.90
18153;DHT22;9202;51.578;7.734;2023-08-20T05:49:23;20.60;99.90
18153;DHT22;9202;51.578;7.734;2023-08-20T05:51:26;20.60;99.90
18153;DHT22;9202;51.578;7.734;2023-08-20T05:53:29;20.60;99.90
18153;DHT22;9202;51.578;7.734;2023-08-20T05:55:32;20.60;99.90
18153;DHT22;9202;51.578;7.734;2023-08-20T05:57:35;20.60;99.90
18153;DHT22;9202;51.578;7.734;2023-08-20T05:59:39;20.70;99.90
18153;DHT22;9202;51.578;7.734;2023-08-20T06:01:41;20.70;99.90
18153;DHT22;9202;51.578;7.734;2023-08-20T06:03:45;20.70;99.90
18153;DHT22;9202;51.578;7.734;2023-08-20T06:05:48;20.70;99.90
18153;DHT22;9202;51.578;7.734;2023-08-20T06:07:51;20.70;99.90
18153;DHT22;9202;51.578;7.734;2023-08-20T06:09:54;20.70;99.90
18153;DHT22;9202;51.578;7.734;2023-08-20T06:11:58;20.70;99.90
18153;DHT22;9202;51.578;7.734;2023-08-20T06:14:01;20.80;99.90
18153;DHT22;9202;51.578;7.734;2023-08-20T06:16:04;20.80;99.90
18153;DHT22;9202;51.578;7.734;2023-08-20T06:18:08;20.80;99.90
18153;DHT22;9202;51.578;7.734;2023-08-20T06:20:11;20.80;99.90
18153;DHT22;9202;51.578;7.734;2023-08-20T06:22:14;20.80;99.90
18153;DHT22;9202;51.578;7.734;2023-08-20T06:24:17;20.80;99.90
18153;DHT22;9202;51.578;7.734;2023-08-20T06:26:20;20.80;99.90
18153;DHT22;9202;51.578;7.734;2023-08-20T06:28:23;20.80;99.90
18153;DHT22;9202;51.578;7.734;2023-08-20T06:30:26;20.80;99.90
18153;DHT22;9202;51.578;7.734;2023-08-20T06:32:29;20.80;99.90
18153;DHT22;9202;51.578;7.734;2023-08-20T06:34:31;20.80;99.90
18153;DHT22;9202;51.578;7.734;2023-08-20T06:36:36;20.80;99.90
18153;DHT22;9202;51.578;7.734;2023-08-20T06:38:38;20.80;99.90
18153;DHT22;9202;51.578;7.734;2023-08-20T06:40:41;20.90;99.90
18153;DHT22;9202;51.578;7.734;2023-08-20T06:42:44;20.90;99.90
18153;DHT22;9202;51.578;7.734;2023-08-20T06:44:47;20.90;99.90
18153;DHT22;9202;51.578;7.734;2023-08-20T06:46:50;21.00;99.90
18153;DHT22;9202;51.578;7.734;2023-08-20T06:48:53;20.90;99.90
18153;DHT22;9202;51.578;7.734;2023-08-20T06:50:56;21.00;99.90
18153;DHT22;9202;51.578;7.734;2023-08-20T06:52:59;21.10;99.90
18153;DHT22;9202;51.578;7.734;2023-08-20T06:55:02;21.20;99.90
18153;DHT22;9202;51.578;7.734;2023-08-20T06:57:05;21.20;99.90
18153;DHT22;9202;51.578;7.734;2023-08-20T06:59:08;21.40;99.90
18153;DHT22;9202;51.578;7.734;2023-08-20T07:01:12;21.40;99.90
18153;DHT22;9202;51.578;7.734;2023-08-20T07:03:15;21.40;99.90
18153;DHT22;9202;51.578;7.734;2023-08-20T07:05:18;21.50;99.90
18153;DHT22;9202;51.578;7.734;2023-08-20T07:07:23;21.40;99.90
18153;DHT22;9202;51.578;7.734;2023-08-20T07:09:26;21.50;99.90
18153;DHT22;9202;51.578;7.734;2023-08-20T07:11:29;21.50;99.90
18153;DHT22;9202;51.578;7.734;2023-08-20T07:13:32;21.50;99.90
18153;DHT22;9202;51.578;7.734;2023-08-20T07:15:34;21.60;99.90
18153;DHT22;9202;51.578;7.734;2023-08-20T07:17:37;21.60;99.90
18153;DHT22;9202;51.578;7.734;2023-08-20T07:19:41;21.70;99.90
18153;DHT22;9202;51.578;7.734;2023-08-20T07:21:44;21.70;99.90
18153;DHT22;9202;51.578;7.734;2023-08-20T07:23:47;21.80;99.90
18153;DHT22;9202;51.578;7.734;2023-08-20T07:25:49;21.90;99.90
18153;DHT22;9202;51.578;7.734;2023-08-20T07:27:54;21.90;99.90
18153;DHT22;9202;51.578;7.734;2023-08-20T07:29:59;22.00;99.90
18153;DHT22;9202;51.578;7.734;2023-08-20T07:32:02;22.00;99.90
18153;DHT22;9202;51.578;7.734;2023-08-20T07:34:05;22.00;99.90
18153;DHT22;9202;51.578;7.734;2023-08-20T07:36:10;22.00;99.90
18153;DHT22;9202;51.578;7.734;2023-08-20T07:38:13;22.00;99.90
18153;DHT22;9202;51.578;7.734;2023-08-20T07:40:16;22.10;99.90
18153;DHT22;9202;51.578;7.734;2023-08-20T07:42:19;22.20;99.90
18153;DHT22;9202;51.578;7.734;2023-08-20T07:44:22;22.10;99.90
18153;DHT22;9202;51.578;7.734;2023-08-20T07:46:25;22.20;99.90
18153;DHT22;9202;51.578;7.734;2023-08-20T07:48:28;22.20;99.90
18153;DHT22;9202;51.578;7.734;2023-08-20T07:50:31;22.20;99.90
18153;DHT22;9202;51.578;7.734;2023-08-20T07:52:34;22.20;99.90
18153;DHT22;9202;51.578;7.734;2023-08-20T07:54:37;22.30;99.90
18153;DHT22;9202;51.578;7.734;2023-08-20T07:56:40;22.40;99.90
18153;DHT22;9202;51.578;7.734;2023-08-20T07:58:42;22.30;99.90
18153;DHT22;9202;51.578;7.734;2023-08-20T08:00:45;22.30;99.90
18153;DHT22;9202;51.578;7.734;2023-08-20T08:02:49;22.30;99.90
18153;DHT22;9202;51.578;7.734;2023-08-20T08:04:51;22.40;99.90
18153;DHT22;9202;51.578;7.734;2023-08-20T08:06:54;22.40;99.90
18153;DHT22;9202;51.578;7.734;2023-08-20T08:08:57;22.50;99.90
18153;DHT22;9202;51.578;7.734;2023-08-20T08:11:02;22.50;99.90
18153;DHT22;9202;51.578;7.734;2023-08-20T08:13:05;22.60;99.90
18153;DHT22;9202;51.578;7.734;2023-08-20T08:15:08;22.60;99.90
18153;DHT22;9202;51.578;7.734;2023-08-20T08:17:11;22.60;99.90
18153;DHT22;9202;51.578;7.734;2023-08-20T08:19:13;22.70;99.90
18153;DHT22;9202;51.578;7.734;2023-08-20T08:21:16;22.70;99.90
18153;DHT22;9202;51.578;7.734;2023-08-20T08:23:20;22.80;99.90
18153;DHT22;9202;51.578;7.734;2023-08-20T08:25:23;22.90;99.90
18153;DHT22;9202;51.578;7.734;2023-08-20T08:27:26;23.00;99.90
18153;DHT22;9202;51.578;7.734;2023-08-20T08:29:29;23.10;99.90
18153;DHT22;9202;51.578;7.734;2023-08-20T08:31:31;23.20;99.90
18153;DHT22;9202;51.578;7.734;2023-08-20T08:33:34;23.20;99.90
18153;DHT22;9202;51.578;7.734;2023-08-20T08:35:37;23.40;99.90
18153;DHT22;9202;51.578;7.734;2023-08-20T08:37:40;23.50;99.90
18153;DHT22;9202;51.578;7.734;2023-08-20T08:39:43;23.60;99.90
18153;DHT22;9202;51.578;7.734;2023-08-20T08:41:47;23.70;99.90
18153;DHT22;9202;51.578;7.734;2023-08-20T08:43:53;23.80;99.90
18153;DHT22;9202;51.578;7.734;2023-08-20T08:45:56;23.90;99.90
18153;DHT22;9202;51.578;7.734;2023-08-20T08:47:59;24.00;99.90
18153;DHT22;9202;51.578;7.734;2023-08-20T08:50:05;24.20;99.90
18153;DHT22;9202;51.578;7.734;2023-08-20T08:52:09;24.30;99.90
18153;DHT22;9202;51.578;7.734;2023-08-20T08:54:13;24.60;99.90
18153;DHT22;9202;51.578;7.734;2023-08-20T08:56:18;24.50;99.90
18153;DHT22;9202;51.578;7.734;2023-08-20T08:58:20;24.70;99.90
18153;DHT22;9202;51.578;7.734;2023-08-20T09:00:24;24.90;99.90
18153;DHT22;9202;51.578;7.734;2023-08-20T09:02:26;25.10;99.90
18153;DHT22;9202;51.578;7.734;2023-08-20T09:04:31;25.20;99.90
18153;DHT22;9202;51.578;7.734;2023-08-20T09:06:44;25.30;99.90
18153;DHT22;9202;51.578;7.734;2023-08-20T09:08:47;25.40;99.90
18153;DHT22;9202;51.578;7.734;2023-08-20T09:10:51;25.50;99.90
18153;DHT22;9202;51.578;7.734;2023-08-20T09:12:54;25.60;99.90
18153;DHT22;9202;51.578;7.734;2023-08-20T09:14:59;25.70;99.90
18153;DHT22;9202;51.578;7.734;2023-08-20T09:17:02;25.80;99.90
18153;DHT22;9202;51.578;7.734;2023-08-20T09:19:05;25.90;99.90
18153;DHT22;9202;51.578;7.734;2023-08-20T09:21:08;26.00;99.90
18153;DHT22;9202;51.578;7.734;2023-08-20T09:23:11;26.10;99.90
18153;DHT22;9202;51.578;7.734;2023-08-20T09:25:15;26.30;99.90
18153;DHT22;9202;51.578;7.734;2023-08-20T09:27:19;26.30;99.90
18153;DHT22;9202;51.578;7.734;2023-08-20T09:29:22;26.30;99.90
18153;DHT22;9202;51.578;7.734;2023-08-20T09:31:37;26.30;99.90
18153;DHT22;9202;51.578;7.734;2023-08-20T09:33:49;26.40;99.90
18153;DHT22;9202;51.578;7.734;2023-08-20T09:35:52;26.40;99.90
18153;DHT22;9202;51.578;7.734;2023-08-20T09:37:59;26.50;99.90
18153;DHT22;9202;51.578;7.734;2023-08-20T09:40:02;26.50;99.90
18153;DHT22;9202;51.578;7.734;2023-08-20T09:42:05;26.50;99.90
18153;DHT22;9202;51.578;7.734;2023-08-20T09:44:08;26.50;99.90
18153;DHT22;9202;51.578;7.734;2023-08-20T09:46:12;26.60;99.90
18153;DHT22;9202;51.578;7.734;2023-08-20T09:48:17;26.60;99.90
18153;DHT22;9202;51.578;7.734;2023-08-20T09:50:21;26.70;99.90
18153;DHT22;9202;51.578;7.734;2023-08-20T09:52:29;26.90;99.90
18153;DHT22;9202;51.578;7.734;2023-08-20T09:54:34;27.00;99.90
18153;DHT22;9202;51.578;7.734;2023-08-20T09:56:37;27.10;99.90
18153;DHT22;9202;51.578;7.734;2023-08-20T09:58:41;27.10;99.90
18153;DHT22;9202;51.578;7.734;2023-08-20T10:00:44;27.10;99.90
18153;DHT22;9202;51.578;7.734;2023-08-20T10:02:48;26.70;99.90
18153;DHT22;9202;51.578;7.734;2023-08-20T10:04:52;26.50;99.90
18153;DHT22;9202;51.578;7.734;2023-08-20T10:06:55;26.20;99.90
18153;DHT22;9202;51.578;7.734;2023-08-20T10:09:00;26.00;99.90
18153;DHT22;9202;51.578;7.734;2023-08-20T10:11:05;26.10;99.90
18153;DHT22;9202;51.578;7.734;2023-08-20T10:13:08;26.00;99.90
18153;DHT22;9202;51.578;7.734;2023-08-20T10:15:11;26.00;99.90
18153;DHT22;9202;51.578;7.734;2023-08-20T10:17:14;25.90;99.90
18153;DHT22;9202;51.578;7.734;2023-08-20T10:19:17;25.80;99.90
18153;DHT22;9202;51.578;7.734;2023-08-20T10:21:23;26.00;99.90
18153;DHT22;9202;51.578;7.734;2023-08-20T10:23:26;26.30;99.90
18153;DHT22;9202;51.578;7.734;2023-08-20T10:25:29;26.50;99.90
18153;DHT22;9202;51.578;7.734;2023-08-20T10:27:32;26.60;99.90
18153;DHT22;9202;51.578;7.734;2023-08-20T10:29:40;26.60;99.90
18153;DHT22;9202;51.578;7.734;2023-08-20T10:31:46;26.70;99.90
18153;DHT22;9202;51.578;7.734;2023-08-20T10:33:50;26.70;99.90
18153;DHT22;9202;51.578;7.734;2023-08-20T10:35:53;26.60;99.90
18153;DHT22;9202;51.578;7.734;2023-08-20T10:38:05;26.80;99.90
18153;DHT22;9202;51.578;7.734;2023-08-20T10:40:10;27.00;99.90
18153;DHT22;9202;51.578;7.734;2023-08-20T10:42:26;27.10;99.90
18153;DHT22;9202;51.578;7.734;2023-08-20T10:44:31;26.90;99.90
18153;DHT22;9202;51.578;7.734;2023-08-20T10:46:36;26.80;99.90
18153;DHT22;9202;51.578;7.734;2023-08-20T10:48:41;26.50;99.90
18153;DHT22;9202;51.578;7.734;2023-08-20T10:50:44;26.40;99.90
18153;DHT22;9202;51.578;7.734;2023-08-20T10:52:47;26.40;99.90
18153;DHT22;9202;51.578;7.734;2023-08-20T10:54:52;26.50;99.90
18153;DHT22;9202;51.578;7.734;2023-08-20T10:56:57;26.60;99.90
18153;DHT22;9202;51.578;7.734;2023-08-20T10:59:01;26.80;99.90
18153;DHT22;9202;51.578;7.734;2023-08-20T11:03:37;26.50;99.90
18153;DHT22;9202;51.578;7.734;2023-08-20T11:05:40;26.30;99.90
18153;DHT22;9202;51.578;7.734;2023-08-20T11:07:43;26.30;99.90
18153;DHT22;9202;51.578;7.734;2023-08-20T11:09:47;26.50;99.90
18153;DHT22;9202;51.578;7.734;2023-08-20T11:11:52;26.60;99.90
18153;DHT22;9202;51.578;7.734;2023-08-20T11:13:55;27.10;99.90
18153;DHT22;9202;51.578;7.734;2023-08-20T11:15:58;27.00;99.90
18153;DHT22;9202;51.578;7.734;2023-08-20T11:18:02;27.20;99.90
18153;DHT22;9202;51.578;7.734;2023-08-20T11:20:06;27.40;99.90
18153;DHT22;9202;51.578;7.734;2023-08-20T11:22:10;27.40;99.90
18153;DHT22;9202;51.578;7.734;2023-08-20T11:24:13;27.40;99.90
18153;DHT22;9202;51.578;7.734;2023-08-20T11:26:16;27.30;99.90
18153;DHT22;9202;51.578;7.734;2023-08-20T11:28:20;27.20;99.90
18153;DHT22;9202;51.578;7.734;2023-08-20T11:30:23;27.10;99.90
18153;DHT22;9202;51.578;7.734;2023-08-20T11:32:29;26.90;99.90
18153;DHT22;9202;51.578;7.734;2023-08-20T11:34:33;26.90;99.90
18153;DHT22;9202;51.578;7.734;2023-08-20T11:36:37;26.80;99.90
18153;DHT22;9202;51.578;7.734;2023-08-20T11:38:41;26.80;99.90
18153;DHT22;9202;51.578;7.734;2023-08-20T11:40:43;27.00;99.90
18153;DHT22;9202;51.578;7.734;2023-08-20T11:42:46;27.10;99.90
18153;DHT22;9202;51.578;7.734;2023-08-20T11:44:49;27.10;99.90
18153;DHT22;9202;51.578;7.734;2023-08-20T11:46:52;27.30;99.90
18153;DHT22;9202;51.578;7.734;2023-08-20T11:49:04;27.50;99.90
18153;DHT22;9202;51.578;7.734;2023-08-20T11:51:08;27.60;99.90
18153;DHT22;9202;51.578;7.734;2023-08-20T11:53:11;27.50;99.90
18153;DHT22;9202;51.578;7.734;2023-08-20T11:55:14;27.50;99.90
18153;DHT22;9202;51.578;7.734;2023-08-20T11:57:17;27.60;99.90
18153;DHT22;9202;51.578;7.734;2023-08-20T11:59:20;27.70;99.90
18153;DHT22;9202;51.578;7.734;2023-08-20T12:01:25;27.70;99.90
18153;DHT22;9202;51.578;7.734;2023-08-20T12:03:29;27.80;99.90
18153;DHT22;9202;51.578;7.734;2023-08-20T12:05:33;27.90;99.90
18153;DHT22;9202;51.578;7.734;2023-08-20T12:07:36;28.00;99.90
18153;DHT22;9202;51.578;7.734;2023-08-20T12:09:40;28.10;99.90
18153;DHT22;9202;51.578;7.734;2023-08-20T12:11:48;28.30;99.90
18153;DHT22;9202;51.578;7.734;2023-08-20T12:13:51;28.30;99.90
18153;DHT22;9202;51.578;7.734;2023-08-20T12:15:54;28.10;99.90
18153;DHT22;9202;51.578;7.734;2023-08-20T12:17:58;27.90;99.90
18153;DHT22;9202;51.578;7.734;2023-08-20T12:20:02;27.70;99.90
18153;DHT22;9202;51.578;7.734;2023-08-20T12:22:07;27.50;99.90
18153;DHT22;9202;51.578;7.734;2023-08-20T12:24:11;27.30;99.90
18153;DHT22;9202;51.578;7.734;2023-08-20T12:26:15;27.20;99.90
18153;DHT22;9202;51.578;7.734;2023-08-20T12:28:18;27.10;99.90
18153;DHT22;9202;51.578;7.734;2023-08-20T12:30:20;27.00;99.90
18153;DHT22;9202;51.578;7.734;2023-08-20T12:32:25;26.90;99.90
18153;DHT22;9202;51.578;7.734;2023-08-20T12:34:37;27.00;99.90
18153;DHT22;9202;51.578;7.734;2023-08-20T12:36:41;27.20;99.90
18153;DHT22;9202;51.578;7.734;2023-08-20T12:38:44;27.50;99.90
18153;DHT22;9202;51.578;7.734;2023-08-20T12:40:46;27.60;99.90
18153;DHT22;9202;51.578;7.734;2023-08-20T12:42:49;27.70;99.90
18153;DHT22;9202;51.578;7.734;2023-08-20T12:44:52;27.70;99.90
18153;DHT22;9202;51.578;7.734;2023-08-20T12:46:55;27.70;99.90
18153;DHT22;9202;51.578;7.734;2023-08-20T12:48:58;27.50;99.90
18153;DHT22;9202;51.578;7.734;2023-08-20T12:51:01;27.30;99.90
18153;DHT22;9202;51.578;7.734;2023-08-20T12:53:05;27.10;99.90
18153;DHT22;9202;51.578;7.734;2023-08-20T12:55:08;27.00;99.90
18153;DHT22;9202;51.578;7.734;2023-08-20T12:57:11;27.00;99.90
18153;DHT22;9202;51.578;7.734;2023-08-20T12:59:14;27.00;99.90
18153;DHT22;9202;51.578;7.734;2023-08-20T13:01:17;27.00;99.90
18153;DHT22;9202;51.578;7.734;2023-08-20T13:03:21;27.00;99.90
18153;DHT22;9202;51.578;7.734;2023-08-20T13:05:25;27.10;99.90
18153;DHT22;9202;51.578;7.734;2023-08-20T13:07:29;27.00;99.90
18153;DHT22;9202;51.578;7.734;2023-08-20T13:09:32;27.00;99.90
18153;DHT22;9202;51.578;7.734;2023-08-20T13:11:35;27.00;99.90
18153;DHT22;9202;51.578;7.734;2023-08-20T13:13:39;27.10;99.90
18153;DHT22;9202;51.578;7.734;2023-08-20T13:15:42;27.20;99.90
18153;DHT22;9202;51.578;7.734;2023-08-20T13:17:46;27.20;99.90